createdAt,value
2022-09-09T00:02:15.370Z,13.727722
2022-09-09T00:05:40.560Z,13.818359
2022-09-09T00:09:05.808Z,13.848572
2022-09-09T00:12:31.054Z,13.908997
2022-09-09T00:15:56.329Z,13.908997
2022-09-09T00:19:21.550Z,13.969421
2022-09-09T00:22:46.820Z,14.029846
2022-09-09T00:26:12.049Z,14.060059
2022-09-09T00:29:37.308Z,14.070129
2022-09-09T00:33:02.542Z,14.039917
2022-09-09T00:36:27.759Z,14.090271
2022-09-09T00:39:53.138Z,14.070129
2022-09-09T00:43:18.290Z,14.100342
2022-09-09T00:46:43.534Z,14.150696
2022-09-09T00:50:08.755Z,14.180908
2022-09-09T00:53:34.007Z,14.20105
2022-09-09T00:56:59.270Z,14.180908
2022-09-09T01:00:24.527Z,14.20105
2022-09-09T01:03:49.759Z,14.170837
2022-09-09T01:07:14.946Z,14.150696
2022-09-09T01:10:40.195Z,14.150696
2022-09-09T01:14:05.442Z,14.100342
2022-09-09T01:17:30.694Z,14.090271
2022-09-09T01:20:55.944Z,14.060059
2022-09-09T01:24:21.170Z,13.999634
2022-09-09T01:27:46.408Z,13.989563
2022-09-09T01:31:11.708Z,13.969421
2022-09-09T01:34:36.897Z,13.999634
2022-09-09T01:38:02.171Z,13.999634
2022-09-09T01:41:27.397Z,13.999634
2022-09-09T01:44:52.645Z,13.989563
2022-09-09T01:48:17.931Z,13.999634
2022-09-09T01:51:43.158Z,13.989563
2022-09-09T01:55:08.444Z,13.969421
2022-09-09T01:58:33.749Z,13.989563
2022-09-09T02:01:58.976Z,13.999634
2022-09-09T02:05:24.149Z,13.989563
2022-09-09T02:08:49.392Z,14.019775
2022-09-09T02:12:14.660Z,13.969421
2022-09-09T02:15:39.880Z,13.919067
2022-09-09T02:19:05.093Z,13.919067
2022-09-09T02:22:30.334Z,13.878784
2022-09-09T02:25:55.580Z,13.838501
2022-09-09T02:29:20.840Z,13.818359
2022-09-09T02:32:46.052Z,13.818359
2022-09-09T02:36:11.850Z,13.868713
2022-09-09T02:39:37.129Z,13.848572
2022-09-09T02:43:02.306Z,13.818359
2022-09-09T02:46:27.567Z,13.808289
2022-09-09T02:49:52.789Z,13.818359
2022-09-09T02:53:18.044Z,13.788147
2022-09-09T02:56:43.272Z,13.747864
2022-09-09T03:00:08.503Z,13.707581
2022-09-09T03:03:33.758Z,13.727722
2022-09-09T03:06:58.980Z,13.778076
2022-09-09T03:10:24.214Z,13.808289
2022-09-09T03:13:49.453Z,13.838501
2022-09-09T03:17:14.694Z,13.838501
2022-09-09T03:20:39.931Z,13.878784
2022-09-09T03:24:05.127Z,13.908997
2022-09-09T03:27:30.380Z,13.868713
2022-09-09T03:30:55.624Z,13.888855
2022-09-09T03:34:20.885Z,13.908997
2022-09-09T03:37:46.150Z,13.94928
2022-09-09T03:41:11.347Z,13.959351
2022-09-09T03:44:36.577Z,13.999634
2022-09-09T03:48:01.813Z,14.019775
2022-09-09T03:51:27.055Z,14.029846
2022-09-09T03:54:52.310Z,14.029846
2022-09-09T03:58:17.551Z,14.019775
2022-09-09T04:01:42.787Z,13.989563
2022-09-09T04:05:08.030Z,14.019775
2022-09-09T04:08:33.359Z,14.029846
2022-09-09T04:11:58.546Z,14.070129
2022-09-09T04:15:23.787Z,14.039917
2022-09-09T04:18:49.021Z,14.029846
2022-09-09T04:22:14.274Z,14.029846
2022-09-09T04:25:39.506Z,14.029846
2022-09-09T04:29:04.749Z,14.029846
2022-09-09T04:32:29.993Z,14.039917
2022-09-09T04:35:55.336Z,14.029846
2022-09-09T04:39:20.532Z,13.999634
2022-09-09T04:42:45.778Z,14.039917
2022-09-09T04:46:11.091Z,14.060059
2022-09-09T04:49:36.271Z,14.060059
2022-09-09T04:53:01.435Z,14.070129
2022-09-09T04:56:26.606Z,14.170837
2022-09-09T04:59:51.885Z,14.251404
2022-09-09T05:03:17.089Z,14.291687
2022-09-09T05:06:42.295Z,14.33197
2022-09-09T05:10:07.505Z,14.321899
2022-09-09T05:13:32.659Z,14.352112
2022-09-09T05:16:57.829Z,14.392395
2022-09-09T05:20:23.049Z,14.392395
2022-09-09T05:23:48.181Z,14.362183
2022-09-09T05:27:13.421Z,14.392395
2022-09-09T05:30:38.599Z,14.402466
2022-09-09T05:34:03.813Z,14.362183
2022-09-09T05:37:29.035Z,14.321899
2022-09-09T05:40:54.197Z,14.392395
2022-09-09T05:44:19.385Z,14.422607
2022-09-09T05:47:44.574Z,14.45282
2022-09-09T05:51:09.771Z,14.422607
2022-09-09T05:54:35.005Z,14.33197
2022-09-09T05:58:00.156Z,14.352112
2022-09-09T06:01:25.346Z,14.33197
2022-09-09T06:04:50.566Z,14.362183
2022-09-09T06:08:15.759Z,14.33197
2022-09-09T06:11:41.004Z,14.362183
2022-09-09T06:15:06.182Z,14.362183
2022-09-09T06:18:31.405Z,14.392395
2022-09-09T06:21:56.584Z,14.422607
2022-09-09T06:25:21.830Z,14.402466
2022-09-09T06:28:47.060Z,14.422607
2022-09-09T06:32:12.259Z,14.45282
2022-09-09T06:35:37.464Z,14.543457
2022-09-09T06:39:02.658Z,14.624023
2022-09-09T06:42:27.893Z,14.644165
2022-09-09T06:45:53.113Z,14.654236
2022-09-09T06:49:18.315Z,14.624023
2022-09-09T06:52:43.485Z,14.613953
2022-09-09T06:56:08.687Z,14.603882
2022-09-09T06:59:33.875Z,14.624023
2022-09-09T07:02:59.087Z,14.694519
2022-09-09T07:06:24.239Z,14.654236
2022-09-09T07:09:49.439Z,14.694519
2022-09-09T07:13:14.650Z,14.613953
2022-09-09T07:16:39.863Z,14.684448
2022-09-09T07:20:05.091Z,14.644165
2022-09-09T07:23:33.139Z,14.684448
2022-09-09T07:26:55.480Z,14.694519
2022-09-09T07:30:24.242Z,14.734802
2022-09-09T07:33:45.905Z,14.83551
2022-09-09T07:37:11.146Z,14.906006
2022-09-09T07:40:36.348Z,14.976501
2022-09-09T07:44:01.533Z,15.057068
2022-09-09T07:47:26.759Z,15.167847
2022-09-09T07:50:52.002Z,15.349121
2022-09-09T07:54:17.232Z,15.510254
2022-09-09T07:57:42.412Z,15.600891
2022-09-09T08:01:07.656Z,15.59082
2022-09-09T08:04:32.863Z,15.641174
2022-09-09T08:07:58.085Z,15.641174
2022-09-09T08:11:23.344Z,15.671387
2022-09-09T08:14:48.522Z,15.802307
2022-09-09T08:18:13.710Z,15.933228
2022-09-09T08:21:38.945Z,16.124573
2022-09-09T08:25:04.188Z,16.205139
2022-09-09T08:28:29.504Z,16.275635
2022-09-09T08:31:54.687Z,16.376343
2022-09-09T08:35:19.894Z,16.406555
2022-09-09T08:38:45.107Z,16.456909
2022-09-09T08:42:10.261Z,16.456909
2022-09-09T08:45:35.463Z,16.517334
2022-09-09T08:49:00.589Z,16.567688
2022-09-09T08:52:25.826Z,16.577759
2022-09-09T08:55:51.080Z,16.456909
2022-09-09T08:59:16.248Z,16.34613
2022-09-09T09:02:41.513Z,16.225281
2022-09-09T09:06:06.633Z,16.124573
2022-09-09T09:09:31.867Z,16.114502
2022-09-09T09:12:57.099Z,16.154785
2022-09-09T09:16:22.369Z,16.154785
2022-09-09T09:19:47.534Z,16.154785
2022-09-09T09:23:12.749Z,16.144714
2022-09-09T09:26:38.023Z,16.195068
2022-09-09T09:30:22.797Z,16.265564
2022-09-09T09:33:28.493Z,16.305847
2022-09-09T09:36:53.780Z,16.33606
2022-09-09T09:40:19.040Z,16.426697
2022-09-09T09:43:44.324Z,16.527405
2022-09-09T09:47:09.544Z,16.708679
2022-09-09T09:50:34.813Z,16.819458
2022-09-09T09:54:00.124Z,16.97052
2022-09-09T09:57:25.314Z,17.182007
2022-09-09T10:00:50.566Z,17.443848
2022-09-09T10:04:15.834Z,17.695618
2022-09-09T10:07:41.022Z,17.897034
2022-09-09T10:11:06.340Z,18.068237
2022-09-09T10:14:31.488Z,18.199158
2022-09-09T10:17:56.722Z,18.249512
2022-09-09T10:21:21.898Z,18.259583
2022-09-09T10:24:47.156Z,18.35022
2022-09-09T10:28:12.419Z,18.410645
2022-09-09T10:31:37.696Z,18.209229
2022-09-09T10:35:02.947Z,17.866821
2022-09-09T10:38:28.133Z,17.59491
2022-09-09T10:41:53.301Z,17.443848
2022-09-09T10:45:18.533Z,17.544556
2022-09-09T10:48:43.694Z,17.705688
2022-09-09T10:52:08.861Z,17.635193
2022-09-09T10:55:34.059Z,17.59491
2022-09-09T10:58:59.250Z,17.745972
2022-09-09T11:02:24.486Z,18.017883
2022-09-09T11:05:49.637Z,18.289795
2022-09-09T11:09:14.852Z,18.581848
2022-09-09T11:12:40.068Z,18.813477
2022-09-09T11:16:05.265Z,19.065247
2022-09-09T11:19:30.502Z,19.216309
2022-09-09T11:22:55.668Z,19.286804
2022-09-09T11:26:20.842Z,19.155884
2022-09-09T11:29:46.034Z,18.954468
2022-09-09T11:33:11.237Z,18.702698
2022-09-09T11:36:36.437Z,18.511353
2022-09-09T11:40:01.650Z,18.521423
2022-09-09T11:43:26.787Z,18.521423
2022-09-09T11:46:52.008Z,18.541565
2022-09-09T11:50:17.192Z,18.581848
2022-09-09T11:53:42.408Z,18.622131
2022-09-09T11:57:07.613Z,18.753052
2022-09-09T12:00:32.828Z,18.753052
2022-09-09T12:03:58.087Z,18.883972
2022-09-09T12:07:23.242Z,19.055176
2022-09-09T12:10:48.436Z,19.246521
2022-09-09T12:14:13.611Z,19.407654
2022-09-09T12:17:38.824Z,19.538574
2022-09-09T12:21:04.124Z,19.619141
2022-09-09T12:24:29.288Z,19.558716
2022-09-09T12:27:54.494Z,19.558716
2022-09-09T12:31:19.718Z,19.548645
2022-09-09T12:34:44.857Z,19.619141
2022-09-09T12:38:10.061Z,19.659424
2022-09-09T12:41:35.376Z,19.60907
2022-09-09T12:45:00.585Z,19.468079
2022-09-09T12:48:25.801Z,19.407654
2022-09-09T12:51:50.997Z,19.306946
2022-09-09T12:55:16.203Z,19.186096
2022-09-09T12:58:42.197Z,19.155884
2022-09-09T13:02:07.532Z,19.155884
2022-09-09T13:05:32.631Z,19.135742
2022-09-09T13:08:57.845Z,19.055176
2022-09-09T13:12:23.062Z,18.914185
2022-09-09T13:15:48.350Z,18.85376
2022-09-09T13:19:16.790Z,18.753052
2022-09-09T13:22:42.641Z,18.652344
2022-09-09T13:26:09.218Z,18.622131
2022-09-09T13:29:39.273Z,18.471069
2022-09-09T13:33:05.787Z,18.299866
2022-09-09T13:43:34.923Z,16.829529
2022-09-09T13:47:00.052Z,16.779175
2022-09-09T13:50:25.337Z,16.84967
2022-09-09T13:53:50.594Z,16.879883
2022-09-09T13:57:15.812Z,17.010803
2022-09-09T14:00:41.026Z,17.141724
2022-09-09T14:04:06.195Z,17.252502
2022-09-09T14:07:31.713Z,17.333069
2022-09-09T14:10:56.911Z,17.403564
2022-09-09T14:14:22.094Z,17.463989
2022-09-09T14:17:47.318Z,17.484131
2022-09-09T14:21:12.501Z,17.514343
2022-09-09T14:24:37.690Z,17.514343
2022-09-09T14:28:02.891Z,17.494202
2022-09-09T15:04:56.939Z,17.373352
2022-09-09T15:08:22.090Z,17.363281
2022-09-09T15:11:47.295Z,17.383423
2022-09-09T15:15:12.474Z,17.494202
2022-09-09T15:18:37.654Z,17.554626
2022-09-09T15:22:02.957Z,17.564697
2022-09-09T15:25:28.035Z,17.59491
2022-09-09T15:28:53.236Z,17.554626
2022-09-09T15:32:18.434Z,17.615051
2022-09-09T15:35:43.652Z,17.59491
2022-09-09T15:39:08.864Z,17.635193
2022-09-09T15:42:34.110Z,17.615051
2022-09-09T15:45:59.349Z,17.625122
2022-09-09T15:49:24.528Z,17.635193
2022-09-09T15:52:49.687Z,17.635193
2022-09-09T15:56:14.891Z,17.625122
2022-09-09T15:59:40.058Z,17.615051
2022-09-09T16:03:05.217Z,17.615051
2022-09-09T16:06:30.378Z,17.584839
2022-09-09T16:09:55.572Z,17.584839
2022-09-09T16:13:20.746Z,17.554626
2022-09-09T16:16:45.945Z,17.484131
2022-09-09T16:20:11.425Z,17.373352
2022-09-09T16:23:37.215Z,17.302856
2022-09-09T16:27:02.243Z,17.262573
2022-09-09T16:30:27.431Z,17.262573
2022-09-09T16:33:52.633Z,17.192078
2022-09-09T16:37:17.830Z,17.071228
2022-09-09T16:40:42.999Z,16.97052
2022-09-09T16:44:08.272Z,16.84967
2022-09-09T16:47:33.625Z,16.748962
2022-09-09T16:50:58.826Z,16.668396
2022-09-09T16:54:24.042Z,16.5979
2022-09-09T16:57:49.302Z,16.497192
2022-09-09T17:01:14.573Z,16.477051
2022-09-09T17:04:39.862Z,16.477051
2022-09-09T17:08:05.107Z,16.416626
2022-09-09T17:11:30.353Z,16.376343
2022-09-09T17:14:55.657Z,16.34613
2022-09-09T17:18:20.872Z,16.265564
2022-09-09T17:22:06.208Z,16.225281
2022-09-09T17:25:11.317Z,16.124573
2022-09-09T17:28:36.576Z,16.023865
2022-09-09T17:32:01.831Z,15.903015
2022-09-09T17:35:27.029Z,15.862732
2022-09-09T17:38:52.220Z,15.862732
2022-09-09T17:42:17.393Z,15.872803
2022-09-09T17:45:42.637Z,15.892944
2022-09-09T17:49:07.858Z,15.923157
2022-09-09T17:52:33.039Z,15.943298
2022-09-09T17:55:58.256Z,16.003723
2022-09-09T17:59:23.475Z,15.973511
2022-09-09T18:02:48.796Z,16.044006
2022-09-09T18:06:13.949Z,16.023865
2022-09-09T18:09:39.146Z,15.973511
2022-09-09T18:13:04.374Z,16.044006
2022-09-09T18:16:29.623Z,16.003723
2022-09-09T18:19:54.817Z,15.872803
2022-09-09T18:23:20.045Z,15.721741
2022-09-09T18:26:45.304Z,15.621033
2022-09-09T18:30:10.555Z,15.490112
2022-09-09T18:33:35.749Z,15.359192
2022-09-09T18:37:01.007Z,15.359192
2022-09-09T18:40:26.249Z,15.349121
2022-09-09T18:43:51.484Z,15.288696
2022-09-09T18:47:16.717Z,15.20813
2022-09-09T18:50:41.943Z,15.157776
2022-09-09T18:54:07.178Z,15.08728
2022-09-09T18:57:36.332Z,15.016785
2022-09-09T19:00:57.807Z,14.976501
2022-09-09T19:04:22.937Z,14.986572
2022-09-09T19:07:48.115Z,14.936218
2022-09-09T19:11:13.341Z,14.936218
2022-09-09T19:14:38.585Z,14.875793
2022-09-09T19:18:05.878Z,14.855652
2022-09-09T19:21:29.069Z,14.83551
2022-09-09T19:24:54.301Z,14.83551
2022-09-09T19:28:19.546Z,14.775085
2022-09-09T19:31:55.341Z,14.734802
2022-09-09T19:35:10.000Z,14.70459
2022-09-09T19:38:35.352Z,14.654236
2022-09-09T19:42:00.506Z,14.613953
2022-09-09T19:45:25.744Z,14.613953
2022-09-09T19:48:50.999Z,14.573669
2022-09-09T19:52:16.243Z,14.503174
2022-09-09T19:55:41.506Z,14.422607
2022-09-09T19:59:06.747Z,14.422607
2022-09-09T20:02:32.069Z,14.422607
2022-09-09T20:05:57.213Z,14.392395
2022-09-09T20:09:22.442Z,14.221191
2022-09-09T20:12:47.717Z,14.100342
2022-09-09T20:16:13.002Z,14.019775
2022-09-09T20:19:38.187Z,13.94928
2022-09-09T20:23:03.380Z,13.959351
2022-09-09T20:26:28.690Z,14.019775
2022-09-09T20:29:53.976Z,13.999634
2022-09-09T20:33:19.200Z,13.989563
2022-09-09T20:36:44.480Z,13.989563
2022-09-09T20:40:09.784Z,13.969421
2022-09-09T20:43:34.954Z,14.029846
2022-09-09T20:47:00.268Z,14.090271
2022-09-09T20:50:25.393Z,14.100342
2022-09-09T20:53:50.648Z,14.120483
2022-09-09T20:57:15.884Z,14.090271
2022-09-09T21:00:41.128Z,14.100342
2022-09-09T21:04:06.386Z,14.100342
2022-09-09T21:07:31.593Z,14.180908
2022-09-09T21:10:56.832Z,14.150696
2022-09-09T21:14:22.060Z,14.170837
2022-09-09T21:17:47.262Z,14.100342
2022-09-09T21:21:12.533Z,14.039917
2022-09-09T21:24:37.758Z,13.999634
2022-09-09T21:28:02.976Z,13.989563
2022-09-09T21:31:28.702Z,13.94928
2022-09-09T21:34:53.439Z,13.94928
2022-09-09T21:38:18.695Z,13.94928
2022-09-09T21:41:43.903Z,13.878784
2022-09-09T21:45:09.137Z,13.878784
2022-09-09T21:48:34.436Z,13.94928
2022-09-09T21:51:59.622Z,13.94928
2022-09-09T21:55:24.926Z,13.959351
2022-09-09T21:58:50.122Z,13.959351
2022-09-09T22:02:15.373Z,13.888855
2022-09-09T22:05:40.585Z,13.908997
2022-09-09T22:09:05.832Z,13.868713
2022-09-09T22:12:31.083Z,13.838501
2022-09-09T22:15:56.318Z,13.868713
2022-09-09T22:19:21.550Z,13.868713
2022-09-09T22:22:46.762Z,13.888855
2022-09-09T22:26:11.989Z,13.878784
2022-09-09T22:29:37.285Z,13.878784
2022-09-09T22:33:02.498Z,13.838501
2022-09-09T22:36:27.731Z,13.818359
2022-09-09T22:39:52.977Z,13.848572
2022-09-09T22:43:18.205Z,13.878784
2022-09-09T22:46:43.491Z,13.868713
2022-09-09T22:50:08.690Z,13.818359
2022-09-09T22:53:33.873Z,13.768005
2022-09-09T22:56:59.109Z,13.707581
2022-09-09T23:00:24.341Z,13.657227
2022-09-09T23:03:49.642Z,13.627014
2022-09-09T23:07:14.710Z,13.596802
2022-09-09T23:10:39.969Z,13.566589
2022-09-09T23:14:05.204Z,13.516235
2022-09-09T23:17:30.405Z,13.475952
2022-09-09T23:20:55.643Z,13.486023
2022-09-09T23:24:20.834Z,13.536377
2022-09-09T23:27:46.044Z,13.546448
2022-09-09T23:31:11.338Z,13.536377
2022-09-09T23:34:36.505Z,13.536377
2022-09-09T23:38:01.701Z,13.475952
2022-09-09T23:41:26.876Z,13.455811
2022-09-09T23:44:52.163Z,13.486023
2022-09-09T23:48:17.369Z,13.506165
2022-09-09T23:51:42.587Z,13.536377
2022-09-09T23:55:07.845Z,13.546448
2022-09-09T23:58:33.032Z,13.566589
